Time;durP1;ratioP1;P1;durP2;ratioP2;P2;SDS_P1;SDS_P2;PMS_P1;PMS_P2;Temp;Humidity;BMP_temperature;BMP_pressure;BME280_temperature;BME280_humidity;BME280_pressure;Samples;Min_cycle;Max_cycle;Signal;HPM_P1;HPM_P2
2021/05/02 00:00:37;;;;;;;;;;;;;;;21.83;33.32;101630.19;2160079;40;114030;-55
2021/05/02 00:02:08;;;;;;;;;;;;;;;21.83;33.17;101628.22;2158389;40;113850;-56
2021/05/02 00:03:39;;;;;;;;;;;;;;;21.82;33.14;101626.53;2156530;40;113798;-60
2021/05/02 00:05:12;;;;;;;;;;;;;;;21.81;33.46;101632.44;2163079;40;113936;-54
2021/05/02 00:06:43;;;;;;;;;;;;;;;21.82;33.42;101628.50;2167064;40;113893;-59
2021/05/02 00:08:14;;;;;;;;;;;;;;;21.80;33.29;101636.44;2167385;40;113769;-56
2021/05/02 00:09:46;;;;;;;;;;;;;;;21.80;33.30;101633.63;2173019;40;113819;-56
2021/05/02 00:11:17;;;;;;;;;;;;;;;21.79;33.19;101631.94;2169633;40;113726;-54
2021/05/02 00:12:48;;;;;;;;;;;;;;;21.78;33.37;101633.91;2167817;40;114087;-58
2021/05/02 00:14:19;;;;;;;;;;;;;;;21.77;33.83;101635.03;2167912;40;114105;-55
2021/05/02 00:15:51;;;;;;;;;;;;;;;21.77;33.31;101631.38;2166736;40;113855;-59
2021/05/02 00:17:22;;;;;;;;;;;;;;;21.76;33.55;101629.72;2167383;40;114187;-58
2021/05/02 00:18:53;;;;;;;;;;;;;;;21.76;33.36;101629.72;2167872;40;114235;-58
2021/05/02 00:20:26;;;;;;;;;;;;;;;21.73;34.00;101628.34;2169853;40;113903;-54
2021/05/02 00:21:58;;;;;;;;;;;;;;;21.75;33.73;101628.91;2160623;40;115771;-55
2021/05/02 00:23:33;;;;;;;;;;;;;;;21.73;33.66;101628.34;2170407;40;115198;-55
2021/05/02 00:25:04;;;;;;;;;;;;;;;21.72;33.81;101635.09;2161563;40;115011;-59
2021/05/02 00:26:36;;;;;;;;;;;;;;;21.72;33.77;101643.53;2165837;40;115015;-58
2021/05/02 00:28:08;;;;;;;;;;;;;;;21.69;34.18;101625.28;2167993;40;113972;-54
2021/05/02 00:29:41;;;;;;;;;;;;;;;21.70;33.79;101628.94;2167307;40;115155;-58
2021/05/02 00:31:13;;;;;;;;;;;;;;;21.69;34.28;101632.91;2159528;40;114857;-55
2021/05/02 00:32:47;;;;;;;;;;;;;;;21.68;34.10;101620.81;2161311;40;116106;-57
2021/05/02 00:34:18;;;;;;;;;;;;;;;21.69;33.92;101627.28;2165847;40;114732;-56
2021/05/02 00:35:50;;;;;;;;;;;;;;;21.68;34.23;101626.44;2165106;40;115440;-57
2021/05/02 00:37:22;;;;;;;;;;;;;;;21.66;33.81;101617.47;2166419;40;115387;-54
2021/05/02 00:38:53;;;;;;;;;;;;;;;21.65;34.26;101621.41;2168028;40;115945;-58
2021/05/02 00:40:32;;;;;;;;;;;;;;;21.62;34.01;101622.00;2167616;40;115033;-56
2021/05/02 00:42:06;;;;;;;;;;;;;;;21.64;34.35;101630.13;2163599;40;115107;-57
2021/05/02 00:43:47;;;;;;;;;;;;;;;21.63;33.95;101620.84;2165521;40;115485;-57
2021/05/02 00:45:22;;;;;;;;;;;;;;;21.62;34.34;101624.00;2166026;40;115758;-58
2021/05/02 00:46:56;;;;;;;;;;;;;;;21.61;34.37;101627.94;2159407;40;115767;-58
2021/05/02 00:48:32;;;;;;;;;;;;;;;21.61;34.15;101625.13;2159262;40;115553;-57
2021/05/02 00:50:12;;;;;;;;;;;;;;;21.59;34.39;101628.22;2165364;40;115575;-58
2021/05/02 00:51:46;;;;;;;;;;;;;;;21.60;34.18;101629.06;2167625;40;115679;-57
2021/05/02 00:53:20;;;;;;;;;;;;;;;21.59;33.99;101631.03;2161170;40;115664;-56
2021/05/02 00:54:56;;;;;;;;;;;;;;;21.60;33.98;101623.44;2165863;40;116186;-58
2021/05/02 00:56:29;;;;;;;;;;;;;;;21.58;34.34;101629.34;2160889;40;115214;-57
2021/05/02 00:58:04;;;;;;;;;;;;;;;21.58;34.24;101628.50;2165490;40;115987;-58
2021/05/02 00:59:42;;;;;;;;;;;;;;;21.56;34.46;101634.47;2168004;40;116024;-57
2021/05/02 01:01:17;;;;;;;;;;;;;;;21.55;34.75;101627.16;2166292;40;115867;-58
2021/05/02 01:02:55;;;;;;;;;;;;;;;21.56;34.36;101630.81;2160643;40;115908;-58
2021/05/02 01:04:29;;;;;;;;;;;;;;;21.55;34.40;101634.75;2167660;40;115574;-55
2021/05/02 01:06:02;;;;;;;;;;;;;;;21.55;34.21;101629.97;2159205;40;113808;-58
2021/05/02 01:07:35;;;;;;;;;;;;;;;21.56;34.18;101628.84;2166208;40;113877;-55
2021/05/02 01:09:07;;;;;;;;;;;;;;;21.55;34.54;101641.22;2169580;40;114990;-58
2021/05/02 01:10:38;;;;;;;;;;;;;;;21.53;34.55;101632.22;2155703;40;114599;-56
2021/05/02 01:12:10;;;;;;;;;;;;;;;21.53;34.55;101629.41;2162204;40;114189;-56
2021/05/02 01:13:45;;;;;;;;;;;;;;;21.53;34.73;101632.22;2160890;40;113886;-60
2021/05/02 01:15:20;;;;;;;;;;;;;;;21.50;34.60;101630.03;2165311;40;114054;-60
2021/05/02 01:16:54;;;;;;;;;;;;;;;21.52;34.11;101632.53;2156038;40;114593;-56
2021/05/02 01:18:26;;;;;;;;;;;;;;;21.51;34.17;101626.06;2159371;40;113918;-58
2021/05/02 01:19:57;;;;;;;;;;;;;;;21.50;34.43;101630.03;2164773;40;114600;-56
2021/05/02 01:21:30;;;;;;;;;;;;;;;21.49;34.21;101627.50;2166922;40;113963;-53
2021/05/02 01:23:04;;;;;;;;;;;;;;;21.49;34.56;101631.16;2167273;40;114001;-57
2021/05/02 01:24:35;;;;;;;;;;;;;;;21.50;34.38;101626.38;2160950;40;114491;-57
2021/05/02 01:26:07;;;;;;;;;;;;;;;21.48;34.28;101635.13;2169253;40;114529;-58
2021/05/02 01:27:38;;;;;;;;;;;;;;;21.47;34.41;101639.06;2167787;40;115067;-57
2021/05/02 01:29:10;;;;;;;;;;;;;;;21.46;34.30;101639.34;2160404;40;115763;-57
2021/05/02 01:30:41;;;;;;;;;;;;;;;21.47;34.71;101649.47;2158536;40;114939;-57
2021/05/02 01:32:13;;;;;;;;;;;;;;;21.47;34.15;101641.88;2168438;40;114053;-58
2021/05/02 01:33:46;;;;;;;;;;;;;;;21.45;34.64;101648.91;2168218;40;115244;-57
2021/05/02 01:35:17;;;;;;;;;;;;;;;21.44;34.51;101639.63;2162130;40;115266;-57
2021/05/02 01:36:48;;;;;;;;;;;;;;;21.42;34.64;101641.09;2159076;40;114864;-53
2021/05/02 01:38:21;;;;;;;;;;;;;;;21.42;34.64;101641.09;2162824;40;114866;-55
2021/05/02 01:39:53;;;;;;;;;;;;;;;21.40;34.36;101641.38;2166557;40;115782;-58
2021/05/02 01:41:25;;;;;;;;;;;;;;;21.39;34.62;101645.34;2160740;40;116956;-55
2021/05/02 01:42:56;;;;;;;;;;;;;;;21.41;34.61;101647.84;2170558;40;117586;-57
2021/05/02 01:44:28;;;;;;;;;;;;;;;21.38;34.76;101645.63;2169525;40;114867;-58
2021/05/02 01:45:59;;;;;;;;;;;;;;;21.37;34.36;101647.59;2167913;40;114999;-54
2021/05/02 01:47:31;;;;;;;;;;;;;;;21.37;34.50;101652.38;2169720;40;114974;-57
2021/05/02 01:49:03;;;;;;;;;;;;;;;21.35;34.63;101640.59;2163549;40;115561;-56
2021/05/02 01:50:44;;;;;;;;;;;;;;;21.34;34.50;101653.81;2169977;40;116327;-58
2021/05/02 01:52:16;;;;;;;;;;;;;;;21.32;34.50;101649.63;2165529;40;115509;-59
2021/05/02 01:53:47;;;;;;;;;;;;;;;21.32;34.87;101655.22;2166628;40;115544;-55
2021/05/02 01:55:19;;;;;;;;;;;;;;;21.32;34.87;101653.28;2167732;40;115687;-58
2021/05/02 01:56:50;;;;;;;;;;;;;;;21.30;34.78;101650.75;2166359;40;115586;-57
2021/05/02 01:58:22;;;;;;;;;;;;;;;21.30;34.91;101652.75;2167373;40;115461;-55
2021/05/02 01:59:55;;;;;;;;;;;;;;;21.30;35.14;101650.75;2156346;40;115506;-57
2021/05/02 02:01:29;;;;;;;;;;;;;;;21.28;35.24;101647.41;2169784;40;115560;-58
2021/05/02 02:03:01;;;;;;;;;;;;;;;21.26;34.79;101652.47;2168243;40;115421;-57
2021/05/02 02:04:34;;;;;;;;;;;;;;;21.26;34.80;101651.63;2154631;40;117133;-60
2021/05/02 02:06:06;;;;;;;;;;;;;;;21.25;35.20;101647.16;2156524;40;115675;-60
2021/05/02 02:07:39;;;;;;;;;;;;;;;21.23;35.18;101647.44;2164304;40;115639;-54
2021/05/02 02:09:10;;;;;;;;;;;;;;;21.23;34.84;101641.00;2167776;40;115721;-54
2021/05/02 02:10:42;;;;;;;;;;;;;;;21.22;35.06;101654.19;2170505;40;115568;-59
2021/05/02 02:12:13;;;;;;;;;;;;;;;21.21;34.88;101652.53;2172612;40;113651;-57
2021/05/02 02:13:46;;;;;;;;;;;;;;;21.21;35.18;101646.09;2169293;40;113807;-58
2021/05/02 02:15:17;;;;;;;;;;;;;;;21.19;34.85;101652.00;2159022;40;115525;-58
2021/05/02 02:16:50;;;;;;;;;;;;;;;21.21;35.10;101646.09;2164684;40;114049;-59
2021/05/02 02:18:21;;;;;;;;;;;;;;;21.19;35.20;101649.19;2166139;40;114901;-57
2021/05/02 02:19:53;;;;;;;;;;;;;;;21.16;34.94;101654.56;2167074;40;114177;-58
2021/05/02 02:21:25;;;;;;;;;;;;;;;21.15;35.13;101653.72;2160324;40;114024;-57
2021/05/02 02:22:59;;;;;;;;;;;;;;;21.14;35.03;101648.38;2170940;40;114408;-58
2021/05/02 02:24:41;;;;;;;;;;;;;;;21.15;35.22;101650.06;2166680;40;114227;-59
2021/05/02 02:26:12;;;;;;;;;;;;;;;21.13;35.25;101658.78;2167762;40;113988;-56
2021/05/02 02:27:44;;;;;;;;;;;;;;;21.15;35.32;101655.69;2167664;40;113693;-57
2021/05/02 02:29:16;;;;;;;;;;;;;;;21.14;35.33;101654.00;2167503;40;113897;-58
2021/05/02 02:30:49;;;;;;;;;;;;;;;21.14;35.45;101654.00;2165241;40;113823;-58
2021/05/02 02:32:20;;;;;;;;;;;;;;;21.14;35.26;101654.84;2171148;40;117837;-58
2021/05/02 02:33:51;;;;;;;;;;;;;;;21.14;35.39;101662.44;2161458;40;115273;-57
2021/05/02 02:35:25;;;;;;;;;;;;;;;21.13;35.25;101657.94;2167567;40;114986;-56
2021/05/02 02:36:56;;;;;;;;;;;;;;;21.13;35.62;101664.41;2176826;40;115124;-57
2021/05/02 02:38:28;;;;;;;;;;;;;;;21.13;35.68;101655.97;2169949;40;114839;-55
2021/05/02 02:40:01;;;;;;;;;;;;;;;21.13;35.48;101657.94;2168477;40;114880;-58
2021/05/02 02:41:36;;;;;;;;;;;;;;;21.12;35.54;101657.06;2167849;40;115310;-57
2021/05/02 02:43:09;;;;;;;;;;;;;;;21.13;35.37;101655.13;2168601;40;115460;-56
2021/05/02 02:44:43;;;;;;;;;;;;;;;21.11;35.48;101657.38;2161815;40;115400;-55
2021/05/02 02:46:16;;;;;;;;;;;;;;;21.12;35.51;101654.25;2159252;40;114588;-57
2021/05/02 02:47:50;;;;;;;;;;;;;;;21.13;35.69;101655.13;2165607;40;115118;-56
2021/05/02 02:49:22;;;;;;;;;;;;;;;21.11;35.64;101658.22;2168210;40;115139;-56
2021/05/02 02:50:55;;;;;;;;;;;;;;;21.12;35.88;101659.06;2172348;40;114923;-54
2021/05/02 02:52:27;;;;;;;;;;;;;;;21.11;35.54;101655.41;2157001;40;118557;-54
2021/05/02 02:53:59;;;;;;;;;;;;;;;21.08;36.00;101658.81;2166770;40;114876;-56
2021/05/02 02:55:30;;;;;;;;;;;;;;;21.06;36.39;101660.25;2161773;40;115699;-56
2021/05/02 02:57:02;;;;;;;;;;;;;;;21.06;35.94;101663.03;2156565;40;116066;-59
2021/05/02 02:58:35;;;;;;;;;;;;;;;21.08;35.62;101660.75;2166011;40;115502;-55
2021/05/02 03:00:07;;;;;;;;;;;;;;;21.06;36.08;101663.03;2158735;40;115549;-59
2021/05/02 03:01:41;;;;;;;;;;;;;;;21.05;36.19;101659.41;2165729;40;115430;-56
2021/05/02 03:03:13;;;;;;;;;;;;;;;21.07;35.80;101659.13;2168354;40;115665;-58
2021/05/02 03:04:45;;;;;;;;;;;;;;;21.04;35.94;101665.31;2169052;40;115745;-57
2021/05/02 03:06:19;;;;;;;;;;;;;;;21.03;36.08;101663.66;2166956;40;115727;-59
2021/05/02 03:07:51;;;;;;;;;;;;;;;21.03;36.13;101660.84;2173693;40;115985;-54
2021/05/02 03:09:25;;;;;;;;;;;;;;;21.03;35.86;101658.03;2170399;40;115280;-55
2021/05/02 03:10:56;;;;;;;;;;;;;;;21.02;36.01;101664.78;2166541;40;115814;-56
2021/05/02 03:12:28;;;;;;;;;;;;;;;21.02;36.09;101670.41;2167606;40;116162;-56
2021/05/02 03:13:59;;;;;;;;;;;;;;;21.00;35.79;101665.06;2161074;40;115481;-57
2021/05/02 03:15:30;;;;;;;;;;;;;;;21.01;36.18;101665.91;2167782;40;115760;-57
2021/05/02 03:17:02;;;;;;;;;;;;;;;20.98;36.41;101660.88;2167195;40;114239;-55
2021/05/02 03:18:43;;;;;;;;;;;;;;;21.01;36.20;101665.91;2167425;40;114011;-56
2021/05/02 03:20:15;;;;;;;;;;;;;;;20.97;36.60;101665.66;2166274;40;113782;-55
2021/05/02 03:21:50;;;;;;;;;;;;;;;20.98;36.30;101666.50;2166126;40;114092;-57
2021/05/02 03:23:31;;;;;;;;;;;;;;;21.00;36.46;101672.66;2166602;40;113846;-57
2021/05/02 03:25:04;;;;;;;;;;;;;;;20.99;36.18;101676.56;2168074;40;115819;-55
2021/05/02 03:26:36;;;;;;;;;;;;;;;20.99;36.55;101669.00;2168332;40;114197;-56
2021/05/02 03:28:08;;;;;;;;;;;;;;;20.97;36.71;101667.63;2167352;40;114237;-58
2021/05/02 03:29:40;;;;;;;;;;;;;;;20.97;36.41;101665.66;2173364;40;113844;-57
2021/05/02 03:31:11;;;;;;;;;;;;;;;20.97;36.73;101673.25;2169831;40;114389;-57
2021/05/02 03:32:46;;;;;;;;;;;;;;;20.95;36.92;101670.72;2159652;40;114191;-60
2021/05/02 03:34:17;;;;;;;;;;;;;;;20.95;36.79;101672.69;2156097;40;114441;-53
2021/05/02 03:35:50;;;;;;;;;;;;;;;20.93;36.95;101675.81;2161822;40;114019;-57
2021/05/02 03:37:24;;;;;;;;;;;;;;;20.96;36.58;101675.22;2165949;40;113791;-55
2021/05/02 03:38:55;;;;;;;;;;;;;;;20.94;36.97;101680.28;2161088;40;113895;-58
2021/05/02 03:40:27;;;;;;;;;;;;;;;20.93;36.74;101675.81;2164765;40;115287;-57
2021/05/02 03:42:00;;;;;;;;;;;;;;;20.91;36.83;101680.88;2172626;40;114923;-56
2021/05/02 03:43:31;;;;;;;;;;;;;;;20.92;36.73;101676.94;2159684;40;114195;-55
2021/05/02 03:45:04;;;;;;;;;;;;;;;20.91;36.97;101678.06;2160205;40;115191;-56
2021/05/02 03:46:36;;;;;;;;;;;;;;;20.90;36.60;101682.00;2165998;40;116027;-60
2021/05/02 03:48:07;;;;;;;;;;;;;;;20.91;36.83;101682.84;2158773;40;114950;-56
2021/05/02 03:49:39;;;;;;;;;;;;;;;20.88;36.93;101680.63;2163425;40;114186;-56
2021/05/02 03:51:10;;;;;;;;;;;;;;;20.88;36.57;101680.63;2164411;40;114109;-57
2021/05/02 03:52:41;;;;;;;;;;;;;;;20.88;36.64;101683.44;2165656;40;114955;-59
2021/05/02 03:54:12;;;;;;;;;;;;;;;20.85;36.69;101688.50;2164740;40;115015;-58
2021/05/02 03:55:45;;;;;;;;;;;;;;;20.86;36.49;101686.53;2166156;40;114882;-57
2021/05/02 03:57:16;;;;;;;;;;;;;;;20.85;36.58;101688.50;2165944;40;114928;-55
2021/05/02 03:58:47;;;;;;;;;;;;;;;20.85;36.36;101691.28;2167253;40;115522;-57
2021/05/02 04:00:19;;;;;;;;;;;;;;;20.81;36.67;101684.59;2168540;40;114898;-56
2021/05/02 04:01:52;;;;;;;;;;;;;;;20.81;36.37;101690.22;2166095;40;115454;-57
2021/05/02 04:03:23;;;;;;;;;;;;;;;20.83;36.57;101687.97;2165956;40;115418;-58
2021/05/02 04:04:55;;;;;;;;;;;;;;;20.81;36.58;101697.78;2166831;40;115467;-57
2021/05/02 04:06:26;;;;;;;;;;;;;;;20.80;36.66;101694.13;2166703;40;116276;-57
2021/05/02 04:07:57;;;;;;;;;;;;;;;20.81;36.53;101692.19;2161114;40;115507;-58
2021/05/02 04:09:29;;;;;;;;;;;;;;;20.82;36.26;101699.47;2165971;40;115657;-56
2021/05/02 04:11:00;;;;;;;;;;;;;;;20.82;36.71;101707.91;2167959;40;116262;-57
2021/05/02 04:12:31;;;;;;;;;;;;;;;20.78;36.63;101696.41;2167917;40;116016;-55
2021/05/02 04:14:07;;;;;;;;;;;;;;;20.79;36.49;101703.72;2167331;40;115432;-58
2021/05/02 04:15:38;;;;;;;;;;;;;;;20.79;36.37;101694.44;2164797;40;115688;-53
2021/05/02 04:17:10;;;;;;;;;;;;;;;20.80;36.54;101705.38;2168077;40;115489;-57
2021/05/02 04:18:43;;;;;;;;;;;;;;;20.78;36.75;101702.03;2159868;40;115921;-56
2021/05/02 04:20:14;;;;;;;;;;;;;;;20.78;36.88;101701.19;2162054;40;115594;-58
2021/05/02 04:21:46;;;;;;;;;;;;;;;20.78;36.48;101706.81;2170194;40;115566;-59
2021/05/02 04:23:17;;;;;;;;;;;;;;;20.76;36.73;101703.44;2167263;40;114215;-59
2021/05/02 04:24:48;;;;;;;;;;;;;;;20.74;36.62;101712.19;2173294;40;114398;-60
2021/05/02 04:26:20;;;;;;;;;;;;;;;20.74;36.76;101703.75;2162333;40;113800;-57
2021/05/02 04:27:51;;;;;;;;;;;;;;;20.76;36.84;101715.53;2170871;40;114135;-54
2021/05/02 04:29:23;;;;;;;;;;;;;;;20.75;36.89;101715.84;2167872;40;113722;-58
2021/05/02 04:30:54;;;;;;;;;;;;;;;20.75;36.93;101710.22;2163026;40;114813;-57
2021/05/02 04:32:25;;;;;;;;;;;;;;;20.75;36.71;101721.44;2161076;40;113611;-60
2021/05/02 04:33:56;;;;;;;;;;;;;;;20.73;36.63;101721.72;2159320;40;114443;-57
2021/05/02 04:35:28;;;;;;;;;;;;;;;20.73;36.96;101721.72;2165754;40;113845;-55
2021/05/02 04:36:59;;;;;;;;;;;;;;;20.71;37.14;101715.59;2167490;40;114266;-56
2021/05/02 04:38:30;;;;;;;;;;;;;;;20.71;36.84;101729.63;2167379;40;114004;-56
2021/05/02 04:40:01;;;;;;;;;;;;;;;20.69;36.63;101720.63;2167278;40;113908;-55
2021/05/02 04:41:32;;;;;;;;;;;;;;;20.72;36.47;101725.66;2167195;40;113885;-60
2021/05/02 04:43:04;;;;;;;;;;;;;;;20.69;36.95;101726.25;2170786;40;114174;-57
2021/05/02 04:44:35;;;;;;;;;;;;;;;20.71;36.99;101724.00;2168115;40;115470;-57
2021/05/02 04:46:06;;;;;;;;;;;;;;;20.70;36.91;101735.53;2170132;40;115361;-55
2021/05/02 04:47:37;;;;;;;;;;;;;;;20.68;36.88;101726.53;2166745;40;115046;-58
2021/05/02 04:49:09;;;;;;;;;;;;;;;20.71;36.94;101731.59;2167968;40;114748;-58
2021/05/02 04:50:40;;;;;;;;;;;;;;;20.70;36.95;101729.91;2172778;40;115553;-56
2021/05/02 04:52:13;;;;;;;;;;;;;;;20.66;37.08;101732.47;2168378;40;114754;-57
2021/05/02 04:53:45;;;;;;;;;;;;;;;20.67;36.73;101739.72;2168238;40;114906;-55
2021/05/02 04:55:16;;;;;;;;;;;;;;;20.67;36.85;101736.13;2166628;40;115222;-56
2021/05/02 04:56:47;;;;;;;;;;;;;;;20.63;37.06;101734.97;2167968;40;114781;-55
2021/05/02 04:58:18;;;;;;;;;;;;;;;20.65;36.99;101739.19;2166588;40;114901;-58
2021/05/02 04:59:49;;;;;;;;;;;;;;;20.65;37.04;101744.81;2167038;40;115370;-56
2021/05/02 05:01:20;;;;;;;;;;;;;;;20.64;37.34;101750.72;2163369;40;114764;-56
2021/05/02 05:02:52;;;;;;;;;;;;;;;20.62;37.22;101747.38;2171150;40;115307;-57
2021/05/02 05:04:23;;;;;;;;;;;;;;;20.62;37.19;101759.44;2163968;40;114876;-59
2021/05/02 05:05:54;;;;;;;;;;;;;;;20.61;37.16;101763.38;2165506;40;115285;-55
2021/05/02 05:07:25;;;;;;;;;;;;;;;20.61;37.35;101763.38;2167686;40;115646;-58
2021/05/02 05:08:56;;;;;;;;;;;;;;;20.61;37.04;101763.38;2168328;40;115633;-58
2021/05/02 05:10:28;;;;;;;;;;;;;;;20.58;37.31;101758.31;2167055;40;115789;-58
2021/05/02 05:11:59;;;;;;;;;;;;;;;20.60;37.48;101764.50;2166860;40;115639;-57
2021/05/02 05:13:30;;;;;;;;;;;;;;;20.61;37.31;101766.19;2160977;40;115022;-57
2021/05/02 05:15:01;;;;;;;;;;;;;;;20.59;37.53;101770.38;2165118;40;114827;-56
2021/05/02 05:16:32;;;;;;;;;;;;;;;20.59;37.12;101776.84;2164537;40;115535;-61
2021/05/02 05:18:04;;;;;;;;;;;;;;;20.58;37.33;101777.16;2171366;40;115486;-56
2021/05/02 05:19:35;;;;;;;;;;;;;;;20.57;37.47;101773.50;2168296;40;116021;-57
2021/05/02 05:21:06;;;;;;;;;;;;;;;20.60;37.22;101783.31;2166128;40;115599;-56
2021/05/02 05:22:37;;;;;;;;;;;;;;;20.58;37.08;101791.19;2167754;40;116001;-58
2021/05/02 05:24:09;;;;;;;;;;;;;;;20.58;37.19;101786.38;2172836;40;115583;-54
2021/05/02 05:25:40;;;;;;;;;;;;;;;20.56;37.47;101779.41;2169032;40;115580;-57
2021/05/02 05:27:11;;;;;;;;;;;;;;;20.55;37.33;101786.97;2162864;40;114807;-55
2021/05/02 05:28:43;;;;;;;;;;;;;;;20.53;37.33;101785.59;2164945;40;114272;-56
2021/05/02 05:30:15;;;;;;;;;;;;;;;20.53;37.21;101788.41;2165439;40;113861;-61
2021/05/02 05:31:46;;;;;;;;;;;;;;;20.54;37.12;101790.91;2167741;40;114060;-56
2021/05/02 05:33:17;;;;;;;;;;;;;;;20.54;37.31;101790.91;2167401;40;113838;-58
2021/05/02 05:34:48;;;;;;;;;;;;;;;20.51;37.24;101788.69;2172896;40;114341;-55
2021/05/02 05:36:20;;;;;;;;;;;;;;;20.52;37.10;101790.38;2161935;40;113816;-57
2021/05/02 05:37:51;;;;;;;;;;;;;;;20.52;37.15;101792.34;2169985;40;114354;-56
2021/05/02 05:39:22;;;;;;;;;;;;;;;20.53;37.37;101800.47;2168791;40;113750;-59
2021/05/02 05:40:53;;;;;;;;;;;;;;;20.49;37.70;101799.34;2152494;40;113778;-59
2021/05/02 05:42:24;;;;;;;;;;;;;;;20.50;37.77;101789.81;2156604;40;114082;-55
2021/05/02 05:43:55;;;;;;;;;;;;;;;20.48;37.44;101794.88;2163959;40;113677;-58
2021/05/02 05:45:27;;;;;;;;;;;;;;;20.52;37.64;101797.94;2166231;40;114384;-56
2021/05/02 05:46:58;;;;;;;;;;;;;;;20.53;37.97;101794.88;2167074;40;113835;-53
2021/05/02 05:48:31;;;;;;;;;;;;;;;20.58;37.96;101797.63;2168799;40;113879;-54
2021/05/02 05:50:03;;;;;;;;;;;;;;;20.60;37.73;101794.53;2164656;40;114787;-56
2021/05/02 05:51:34;;;;;;;;;;;;;;;20.62;38.31;101801.56;2166589;40;115566;-54
2021/05/02 05:53:05;;;;;;;;;;;;;;;20.64;37.87;101801.25;2166999;40;114837;-57
2021/05/02 05:54:36;;;;;;;;;;;;;;;20.66;38.11;101802.66;2161684;40;115630;-57
2021/05/02 05:56:07;;;;;;;;;;;;;;;20.67;38.03;101797.88;2167545;40;117242;-58
2021/05/02 05:57:39;;;;;;;;;;;;;;;20.65;38.18;101800.97;2162227;40;115269;-56
2021/05/02 05:59:10;;;;;;;;;;;;;;;20.66;38.06;101799.00;2161116;40;114940;-53
2021/05/02 06:00:41;;;;;;;;;;;;;;;20.68;37.88;101799.53;2171293;40;115008;-59
2021/05/02 06:02:12;;;;;;;;;;;;;;;20.70;38.11;101805.72;2170474;40;114924;-55
2021/05/02 06:03:44;;;;;;;;;;;;;;;20.71;37.97;101811.06;2171412;40;114980;-55
2021/05/02 06:05:16;;;;;;;;;;;;;;;20.74;38.27;101804.84;2168355;40;115268;-56
2021/05/02 06:06:47;;;;;;;;;;;;;;;20.77;37.92;101806.22;2168537;40;115255;-54
2021/05/02 06:08:18;;;;;;;;;;;;;;;20.80;38.09;101809.28;2168053;40;114906;-59
2021/05/02 06:09:49;;;;;;;;;;;;;;;20.82;38.21;101809.88;2169651;40;115134;-56
2021/05/02 06:11:20;;;;;;;;;;;;;;;20.86;38.23;101812.91;2165531;40;115700;-55
2021/05/02 06:12:53;;;;;;;;;;;;;;;20.91;38.32;101814.88;2164264;40;116217;-56
2021/05/02 06:14:24;;;;;;;;;;;;;;;20.95;38.27;101810.34;2166447;40;115692;-58
2021/05/02 06:15:56;;;;;;;;;;;;;;;20.99;38.44;101805.81;2168051;40;115566;-58
2021/05/02 06:17:27;;;;;;;;;;;;;;;21.03;38.70;101813.38;2168183;40;115830;-59
2021/05/02 06:18:59;;;;;;;;;;;;;;;21.06;38.61;101818.44;2159488;40;115791;-56
2021/05/02 06:20:30;;;;;;;;;;;;;;;21.11;38.77;101814.75;2157757;40;114717;-56
2021/05/02 06:22:01;;;;;;;;;;;;;;;21.14;39.04;101806.59;2170183;40;115512;-55
2021/05/02 06:23:34;;;;;;;;;;;;;;;21.21;38.37;101814.72;2169987;40;116035;-55
2021/05/02 06:25:07;;;;;;;;;;;;;;;21.26;38.64;101814.66;2168147;40;115631;-56
2021/05/02 06:26:38;;;;;;;;;;;;;;;21.30;38.47;101810.97;2167957;40;115528;-54
2021/05/02 06:28:09;;;;;;;;;;;;;;;21.34;37.98;101814.06;2173768;40;115872;-56
2021/05/02 06:29:41;;;;;;;;;;;;;;;21.38;37.96;101815.16;2157052;40;116153;-56
2021/05/02 06:31:12;;;;;;;;;;;;;;;21.43;37.60;101817.06;2166313;40;115469;-55
2021/05/02 06:32:43;;;;;;;;;;;;;;;21.47;37.88;101812.53;2168092;40;114028;-55
2021/05/02 06:34:14;;;;;;;;;;;;;;;21.50;37.66;101814.75;2168430;40;113771;-54
2021/05/02 06:35:46;;;;;;;;;;;;;;;21.53;37.54;101819.81;2169863;40;114676;-57
2021/05/02 06:37:17;;;;;;;;;;;;;;;21.57;37.30;101818.09;2169692;40;115474;-58
2021/05/02 06:38:48;;;;;;;;;;;;;;;21.61;37.28;101817.19;2166232;40;114002;-58
2021/05/02 06:40:19;;;;;;;;;;;;;;;21.65;37.33;101811.81;2164969;40;114146;-58
2021/05/02 06:41:50;;;;;;;;;;;;;;;21.69;37.17;101819.38;2164954;40;113968;-57
2021/05/02 06:43:22;;;;;;;;;;;;;;;21.72;37.09;101813.16;2166447;40;113756;-59
2021/05/02 06:44:53;;;;;;;;;;;;;;;21.76;36.99;101821.00;2173656;40;113767;-55
2021/05/02 06:46:28;;;;;;;;;;;;;;;21.79;37.29;101821.25;2160633;40;113762;-55
2021/05/02 06:47:59;;;;;;;;;;;;;;;21.83;37.27;101813.91;2164884;40;114213;-56
2021/05/02 06:49:30;;;;;;;;;;;;;;;21.88;37.29;101821.44;2168142;40;113807;-56
2021/05/02 06:51:01;;;;;;;;;;;;;;;21.91;37.47;101823.66;2164466;40;114177;-56
2021/05/02 06:52:33;;;;;;;;;;;;;;;21.95;37.22;101825.63;2164875;40;113846;-54
2021/05/02 06:54:05;;;;;;;;;;;;;;;21.98;36.97;101825.03;2159502;40;113808;-56
2021/05/02 06:55:36;;;;;;;;;;;;;;;22.01;37.15;101826.41;2164256;40;115333;-58
2021/05/02 06:57:08;;;;;;;;;;;;;;;22.04;37.12;101821.03;2168176;40;113984;-54
2021/05/02 06:58:40;;;;;;;;;;;;;;;22.07;37.15;101831.72;2165389;40;114171;-56
2021/05/02 07:00:11;;;;;;;;;;;;;;;22.10;37.30;101825.47;2163842;40;114919;-55
2021/05/02 07:01:42;;;;;;;;;;;;;;;22.13;37.27;101835.28;2168064;40;115403;-55
2021/05/02 07:03:14;;;;;;;;;;;;;;;22.16;37.06;101829.06;2167336;40;115300;-56
2021/05/02 07:04:47;;;;;;;;;;;;;;;22.18;36.87;101830.44;2167940;40;114861;-56
2021/05/02 07:06:18;;;;;;;;;;;;;;;22.23;36.99;101831.50;2168174;40;115155;-56
2021/05/02 07:07:49;;;;;;;;;;;;;;;22.25;36.96;101835.72;2167650;40;114159;-59
2021/05/02 07:09:21;;;;;;;;;;;;;;;22.30;37.21;101843.28;2167678;40;114111;-57
2021/05/02 07:10:52;;;;;;;;;;;;;;;22.32;36.72;101836.19;2173016;40;114490;-55
2021/05/02 07:12:24;;;;;;;;;;;;;;;22.35;36.95;101838.41;2169157;40;114910;-56
2021/05/02 07:13:56;;;;;;;;;;;;;;;22.38;36.86;101837.81;2173494;40;114735;-56
2021/05/02 07:15:28;;;;;;;;;;;;;;;22.41;36.79;101845.66;2166481;40;114896;-56
2021/05/02 07:16:59;;;;;;;;;;;;;;;22.45;36.41;101843.09;2165851;40;115503;-57
2021/05/02 07:18:34;;;;;;;;;;;;;;;22.46;36.65;101839.97;2167529;40;116645;-57
2021/05/02 07:20:08;;;;;;;;;;;;;;;22.49;36.29;101842.19;2168473;40;115411;-58
2021/05/02 07:21:39;;;;;;;;;;;;;;;22.52;36.38;101841.59;2164996;40;115441;-56
2021/05/02 07:23:10;;;;;;;;;;;;;;;22.54;36.23;101847.75;2166611;40;115602;-56
2021/05/02 07:24:41;;;;;;;;;;;;;;;22.57;36.13;101847.19;2173050;40;115640;-57
2021/05/02 07:26:13;;;;;;;;;;;;;;;22.59;36.41;101850.50;2167572;40;115528;-53
2021/05/02 07:27:44;;;;;;;;;;;;;;;22.61;36.03;101853.88;2167425;40;115590;-58
2021/05/02 07:29:15;;;;;;;;;;;;;;;22.65;36.35;101851.31;2168284;40;116005;-58
2021/05/02 07:30:47;;;;;;;;;;;;;;;22.68;36.06;101852.66;2168065;40;115768;-55
2021/05/02 07:32:18;;;;;;;;;;;;;;;22.70;36.21;101853.25;2158216;40;115705;-58
2021/05/02 07:33:50;;;;;;;;;;;;;;;22.72;36.00;101854.59;2165607;40;115523;-56
2021/05/02 07:35:21;;;;;;;;;;;;;;;22.76;36.01;101860.50;2168158;40;116726;-57
2021/05/02 07:36:54;;;;;;;;;;;;;;;22.77;35.98;101850.88;2169437;40;115760;-56
2021/05/02 07:38:27;;;;;;;;;;;;;;;22.79;36.02;101849.47;2173361;40;114359;-56
2021/05/02 07:39:58;;;;;;;;;;;;;;;22.82;35.97;101851.66;2162388;40;113987;-53
2021/05/02 07:41:29;;;;;;;;;;;;;;;22.85;35.98;101855.88;2165524;40;113768;-57
2021/05/02 07:43:01;;;;;;;;;;;;;;;22.88;36.03;101852.44;2168148;40;114166;-56
2021/05/02 07:44:32;;;;;;;;;;;;;;;22.89;36.06;101854.97;2167925;40;114079;-56
2021/05/02 07:46:03;;;;;;;;;;;;;;;22.92;36.09;101853.50;2162358;40;113875;-54
2021/05/02 07:47:36;;;;;;;;;;;;;;;22.92;36.38;101853.50;2171349;40;113966;-59